Time;durP1;ratioP1;P1;durP2;ratioP2;P2;SDS_P1;SDS_P2;PMS_P1;PMS_P2;Temp;Humidity;BMP_temperature;BMP_pressure;BME280_temperature;BME280_humidity;BME280_pressure;Samples;Min_cycle;Max_cycle;Signal;HPM_P1;HPM_P2
2022/04/13 00:00:46;;;;;;;38.45;21.95;;;2.50;82.00;;;;;;5113025;28;20366;-70
2022/04/13 00:03:12;;;;;;;33.20;21.40;;;2.40;82.10;;;;;;5112729;28;20028;-71
2022/04/13 00:05:37;;;;;;;36.97;21.63;;;2.40;82.00;;;;;;5111524;28;20504;-70
2022/04/13 00:08:06;;;;;;;31.67;20.30;;;2.40;82.00;;;;;;5112865;28;20023;-70
2022/04/13 00:10:33;;;;;;;40.05;21.77;;;2.40;82.10;;;;;;5112886;28;20099;-74
2022/04/13 00:12:59;;;;;;;34.60;20.83;;;2.40;82.10;;;;;;5112914;28;20050;-73
2022/04/13 00:15:25;;;;;;;39.78;20.45;;;2.30;82.30;;;;;;5112784;28;20020;-73
2022/04/13 00:17:50;;;;;;;33.33;20.67;;;2.30;82.80;;;;;;5112830;28;20035;-73
2022/04/13 00:20:16;;;;;;;34.88;21.40;;;2.30;82.90;;;;;;5112765;28;20028;-71
2022/04/13 00:22:41;;;;;;;38.83;22.10;;;2.30;83.00;;;;;;5112849;28;20020;-73
2022/04/13 00:25:07;;;;;;;32.13;20.13;;;2.30;82.90;;;;;;5113422;28;20040;-73
2022/04/13 00:27:33;;;;;;;32.20;21.00;;;2.30;82.90;;;;;;5116429;28;20024;-73
2022/04/13 00:29:59;;;;;;;35.03;20.95;;;2.20;82.90;;;;;;5116451;28;20491;-70
2022/04/13 00:32:25;;;;;;;34.33;20.10;;;2.20;82.80;;;;;;5114780;28;20035;-70
2022/04/13 00:34:51;;;;;;;33.03;20.20;;;2.30;82.60;;;;;;5116424;28;20023;-73
2022/04/13 00:37:16;;;;;;;28.55;17.83;;;2.30;82.40;;;;;;5115012;28;20020;-69
2022/04/13 00:39:43;;;;;;;32.88;18.90;;;2.20;82.20;;;;;;5116338;28;20020;-74
2022/04/13 00:42:09;;;;;;;29.13;18.95;;;2.20;82.10;;;;;;5114820;28;20019;-70
2022/04/13 00:44:35;;;;;;;31.70;18.98;;;2.20;82.10;;;;;;5116135;28;20042;-70
2022/04/13 00:47:05;;;;;;;33.40;19.02;;;2.20;82.40;;;;;;5116022;28;20438;-74
2022/04/13 00:49:31;;;;;;;35.53;17.95;;;2.20;82.30;;;;;;5116008;28;20508;-69
2022/04/13 00:51:59;;;;;;;33.65;19.60;;;2.10;82.40;;;;;;5115931;28;20032;-70
2022/04/13 00:54:28;;;;;;;27.73;18.27;;;2.10;82.50;;;;;;5115891;28;20535;-69
2022/04/13 00:56:55;;;;;;;30.60;16.70;;;2.10;83.10;;;;;;5116053;28;20066;-70
2022/04/13 00:59:23;;;;;;;26.55;18.38;;;2.00;83.20;;;;;;5114614;28;20018;-73
2022/04/13 01:01:49;;;;;;;30.55;17.77;;;2.00;83.20;;;;;;5115710;28;20102;-74
2022/04/13 01:04:16;;;;;;;26.15;17.00;;;2.00;83.30;;;;;;5115695;28;20499;-74
2022/04/13 01:06:43;;;;;;;35.85;19.83;;;2.00;83.20;;;;;;5115484;28;20381;-69
2022/04/13 01:09:11;;;;;;;23.85;16.13;;;2.00;83.10;;;;;;5115715;28;20024;-73
2022/04/13 01:11:37;;;;;;;27.95;15.90;;;2.00;83.20;;;;;;5114216;28;20031;-69
2022/04/13 01:14:03;;;;;;;32.53;17.00;;;2.00;82.90;;;;;;5115645;28;20020;-70
2022/04/13 01:16:28;;;;;;;27.55;16.92;;;2.00;83.10;;;;;;5113861;28;20016;-73
2022/04/13 01:18:55;;;;;;;27.35;16.75;;;2.00;83.20;;;;;;5115524;28;20030;-72
2022/04/13 01:21:45;;;;;;;34.80;17.60;;;2.00;83.20;;;;;;5115409;27;20019;-73
2022/04/13 01:24:11;;;;;;;24.20;15.93;;;2.00;83.90;;;;;;5113989;28;20393;-70
2022/04/13 01:26:37;;;;;;;30.08;16.52;;;2.00;83.50;;;;;;5113902;27;20019;-74
2022/04/13 01:29:03;;;;;;;30.02;18.23;;;1.90;83.40;;;;;;5115278;28;20020;-74
2022/04/13 01:31:29;;;;;;;23.27;16.05;;;1.90;83.80;;;;;;5113756;28;20050;-70
2022/04/13 01:33:56;;;;;;;25.85;16.85;;;1.90;84.70;;;;;;5114936;28;20450;-70
2022/04/13 01:36:23;;;;;;;28.25;16.40;;;1.80;83.70;;;;;;5115266;28;20444;-73
2022/04/13 01:38:48;;;;;;;27.10;16.42;;;1.80;84.20;;;;;;5114591;28;20055;-73
2022/04/13 01:41:14;;;;;;;24.45;15.88;;;1.80;83.90;;;;;;5112080;28;20026;-73
2022/04/13 01:43:39;;;;;;;26.30;15.52;;;1.80;84.20;;;;;;5113468;28;20019;-74
2022/04/13 01:46:05;;;;;;;20.35;15.30;;;1.70;84.70;;;;;;5114297;28;20035;-73
2022/04/13 01:48:31;;;;;;;28.48;15.70;;;1.70;84.50;;;;;;5114907;28;20023;-73
2022/04/13 01:50:58;;;;;;;25.80;14.75;;;1.70;84.50;;;;;;5113499;28;20028;-70
2022/04/13 01:53:24;;;;;;;24.15;16.17;;;1.80;84.30;;;;;;5113251;28;20008;-73
2022/04/13 01:55:51;;;;;;;23.63;14.82;;;1.70;84.50;;;;;;5114663;28;20489;-73
2022/04/13 01:58:16;;;;;;;20.35;13.93;;;1.70;84.50;;;;;;5114637;28;20473;-74
2022/04/13 02:00:42;;;;;;;25.15;14.15;;;1.70;84.80;;;;;;5114579;28;20028;-74
2022/04/13 02:03:08;;;;;;;22.60;14.35;;;1.70;84.80;;;;;;5112958;28;20016;-69
2022/04/13 02:05:34;;;;;;;26.20;14.48;;;1.70;84.70;;;;;;5113108;28;20071;-74
2022/04/13 02:07:59;;;;;;;23.10;13.80;;;1.70;84.80;;;;;;5114528;28;20028;-73
2022/04/13 02:10:25;;;;;;;24.02;14.95;;;1.70;84.50;;;;;;5114534;28;20499;-72
2022/04/13 02:12:51;;;;;;;21.77;13.57;;;1.70;84.40;;;;;;5114188;28;20480;-69
2022/04/13 02:15:17;;;;;;;21.38;14.27;;;1.60;84.40;;;;;;5114305;27;20114;-69
2022/04/13 02:17:43;;;;;;;23.85;13.85;;;1.60;84.30;;;;;;5114273;28;20099;-74
2022/04/13 02:20:09;;;;;;;22.98;14.65;;;1.70;84.10;;;;;;5114377;28;20030;-73
2022/04/13 02:22:35;;;;;;;24.30;13.60;;;1.70;83.70;;;;;;5114026;28;20023;-74
2022/04/13 02:25:05;;;;;;;26.35;14.68;;;1.70;84.00;;;;;;5112777;28;20377;-74
2022/04/13 02:27:31;;;;;;;19.35;13.25;;;1.70;83.90;;;;;;5114248;28;20340;-73
2022/04/13 02:29:57;;;;;;;20.95;13.80;;;1.70;83.70;;;;;;5112804;28;20019;-73
2022/04/13 02:32:22;;;;;;;23.13;14.15;;;1.70;83.50;;;;;;5112882;28;20115;-69
2022/04/13 02:34:48;;;;;;;19.33;13.30;;;1.70;83.40;;;;;;5113677;28;20073;-69
2022/04/13 02:37:17;;;;;;;20.58;12.45;;;1.70;83.60;;;;;;5113973;28;20039;-69
2022/04/13 02:39:44;;;;;;;21.38;13.32;;;1.70;83.50;;;;;;5113985;28;20477;-71
2022/04/13 02:42:14;;;;;;;17.17;12.45;;;1.70;82.90;;;;;;5113641;28;20016;-73
2022/04/13 02:44:43;;;;;;;20.92;12.82;;;1.70;82.40;;;;;;5113413;28;20035;-69
2022/04/13 02:47:09;;;;;;;19.90;13.20;;;1.80;81.80;;;;;;5112113;28;20016;-73
2022/04/13 02:49:35;;;;;;;17.73;11.68;;;1.80;81.30;;;;;;5113740;28;20024;-73
2022/04/13 02:52:00;;;;;;;22.23;12.57;;;1.80;80.90;;;;;;5112499;28;20068;-69
2022/04/13 02:54:26;;;;;;;17.13;12.93;;;1.80;80.80;;;;;;5112251;28;20031;-69
2022/04/13 02:56:51;;;;;;;21.58;13.70;;;1.90;81.00;;;;;;5113690;28;20472;-73
2022/04/13 02:59:17;;;;;;;17.58;12.27;;;1.80;81.90;;;;;;5113729;28;20019;-74
2022/04/13 03:01:43;;;;;;;20.23;12.50;;;1.70;81.30;;;;;;5109848;28;20502;-70
2022/04/13 03:04:09;;;;;;;19.08;13.00;;;1.70;81.80;;;;;;5111776;28;20047;-70
2022/04/13 03:06:35;;;;;;;22.02;13.32;;;1.70;82.20;;;;;;5113337;28;20113;-70
2022/04/13 03:09:01;;;;;;;21.63;12.77;;;1.70;82.60;;;;;;5112213;28;20511;-74
2022/04/13 03:11:27;;;;;;;19.13;12.75;;;1.60;82.70;;;;;;5113328;28;20018;-73
2022/04/13 03:13:52;;;;;;;23.83;14.48;;;1.60;83.10;;;;;;5111810;28;20472;-71
2022/04/13 03:16:18;;;;;;;19.35;12.60;;;1.60;83.00;;;;;;5113352;28;20028;-71
2022/04/13 03:18:44;;;;;;;20.23;12.55;;;1.60;83.40;;;;;;5113396;28;20011;-73
2022/04/13 03:21:09;;;;;;;20.13;13.57;;;1.50;83.70;;;;;;5112000;28;20096;-70
2022/04/13 03:23:35;;;;;;;24.90;14.10;;;1.50;83.60;;;;;;5112009;28;20102;-74
2022/04/13 03:26:00;;;;;;;19.75;13.02;;;1.60;83.40;;;;;;5112466;28;20032;-70
2022/04/13 03:28:26;;;;;;;20.30;12.85;;;1.50;83.40;;;;;;5111518;28;20140;-73
2022/04/13 03:30:53;;;;;;;20.98;13.23;;;1.60;83.10;;;;;;5113190;28;20031;-70
2022/04/13 03:33:19;;;;;;;17.17;12.50;;;1.60;82.80;;;;;;5113066;28;20108;-73
2022/04/13 03:35:44;;;;;;;17.35;13.63;;;1.60;82.40;;;;;;5111201;28;20032;-73
2022/04/13 03:38:10;;;;;;;19.45;12.75;;;1.60;82.30;;;;;;5112724;28;20031;-73
2022/04/13 03:40:35;;;;;;;19.70;13.15;;;1.60;82.10;;;;;;5112928;28;20098;-71
2022/04/13 03:43:01;;;;;;;21.55;12.50;;;1.60;81.70;;;;;;5111858;28;20461;-69
2022/04/13 03:45:26;;;;;;;18.05;12.05;;;1.60;81.60;;;;;;5112635;28;20039;-73
2022/04/13 03:47:52;;;;;;;18.60;13.27;;;1.60;81.60;;;;;;5111461;28;20035;-69
2022/04/13 03:50:18;;;;;;;21.20;13.57;;;1.60;81.60;;;;;;5112888;28;20055;-69
2022/04/13 03:52:44;;;;;;;18.58;13.70;;;1.60;81.80;;;;;;5112925;28;20504;-69
2022/04/13 03:55:10;;;;;;;24.52;12.48;;;1.60;82.10;;;;;;5112464;28;20027;-70
2022/04/13 03:57:36;;;;;;;25.92;13.57;;;1.60;82.40;;;;;;5112709;28;20016;-69
2022/04/13 04:00:07;;;;;;;21.13;14.23;;;1.50;83.00;;;;;;5114750;28;20095;-74
2022/04/13 04:02:37;;;;;;;19.50;13.35;;;1.50;83.20;;;;;;5116685;28;20396;-70
2022/04/13 04:05:03;;;;;;;15.75;11.85;;;1.40;83.00;;;;;;5116293;28;20073;-73
2022/04/13 04:07:29;;;;;;;25.45;13.30;;;1.50;83.10;;;;;;5115075;28;20473;-70
2022/04/13 04:09:54;;;;;;;20.20;13.25;;;1.50;83.00;;;;;;5116698;28;20032;-73
2022/04/13 04:12:20;;;;;;;20.73;13.38;;;1.50;83.40;;;;;;5116577;28;20030;-73
2022/04/13 04:14:46;;;;;;;24.10;14.75;;;1.50;83.80;;;;;;5116138;28;20047;-73
2022/04/13 04:17:11;;;;;;;19.92;14.07;;;1.50;84.10;;;;;;5116490;28;20019;-70
2022/04/13 04:19:37;;;;;;;25.67;15.57;;;1.50;84.20;;;;;;5116622;28;20212;-73
2022/04/13 04:22:03;;;;;;;22.15;14.60;;;1.50;84.30;;;;;;5115221;28;20533;-69
2022/04/13 04:24:29;;;;;;;20.67;13.80;;;1.50;84.70;;;;;;5116357;28;20036;-73
2022/04/13 04:26:54;;;;;;;19.42;13.80;;;1.50;84.70;;;;;;5116274;28;20050;-69
2022/04/13 04:29:20;;;;;;;20.85;12.52;;;1.50;85.00;;;;;;5115531;28;20020;-70
2022/04/13 04:31:53;;;;;;;20.30;12.88;;;1.60;84.40;;;;;;5115653;28;20022;-69
2022/04/13 04:34:20;;;;;;;23.52;14.85;;;1.70;83.60;;;;;;5115060;28;20491;-69
2022/04/13 04:36:46;;;;;;;21.55;13.45;;;1.80;83.20;;;;;;5114734;28;20073;-73
2022/04/13 04:39:12;;;;;;;26.70;14.18;;;1.90;83.00;;;;;;5116236;28;20051;-73
2022/04/13 04:41:40;;;;;;;23.20;14.80;;;1.90;82.80;;;;;;5114837;28;20084;-69
2022/04/13 04:44:06;;;;;;;27.60;15.52;;;2.00;82.90;;;;;;5116043;28;20377;-70
2022/04/13 04:46:31;;;;;;;25.90;16.13;;;2.00;83.10;;;;;;5115837;28;20103;-70
2022/04/13 04:48:57;;;;;;;30.40;17.60;;;2.10;83.10;;;;;;5115937;28;20366;-74
2022/04/13 04:51:22;;;;;;;27.80;16.25;;;2.10;83.30;;;;;;5115910;28;20050;-72
2022/04/13 04:53:48;;;;;;;28.27;15.93;;;2.20;83.70;;;;;;5114640;28;20042;-69
2022/04/13 04:56:15;;;;;;;24.17;15.25;;;2.20;84.10;;;;;;5115637;28;20444;-73
2022/04/13 04:58:40;;;;;;;26.45;16.02;;;2.30;84.30;;;;;;5114474;28;20385;-70
2022/04/13 05:01:06;;;;;;;26.65;14.48;;;2.40;83.00;;;;;;5115726;28;20031;-70
2022/04/13 05:03:32;;;;;;;27.88;15.35;;;2.50;82.70;;;;;;5115840;28;20066;-73
2022/04/13 05:05:57;;;;;;;22.05;14.20;;;2.60;81.80;;;;;;5115161;28;20505;-69
2022/04/13 05:08:24;;;;;;;23.52;14.35;;;2.80;80.50;;;;;;5114384;28;20012;-69
2022/04/13 05:10:53;;;;;;;25.35;15.15;;;2.90;79.60;;;;;;5115251;28;20103;-73
2022/04/13 05:13:18;;;;;;;21.02;13.73;;;3.00;79.10;;;;;;5115631;28;20015;-73
2022/04/13 05:15:45;;;;;;;25.45;14.57;;;3.10;78.40;;;;;;5115106;28;20449;-73
2022/04/13 05:18:11;;;;;;;20.83;13.60;;;3.20;77.90;;;;;;5106984;28;20388;-69
2022/04/13 05:20:37;;;;;;;17.85;12.75;;;3.30;77.20;;;;;;5092201;28;20082;-69
2022/04/13 05:23:03;;;;;;;23.27;14.10;;;3.50;76.50;;;;;;5092751;28;20036;-70
2022/04/13 05:25:29;;;;;;;24.52;13.95;;;3.60;74.60;;;;;;5092584;28;20035;-69
2022/04/13 05:27:54;;;;;;;20.15;12.13;;;3.80;74.40;;;;;;5093617;28;20424;-73
2022/04/13 05:30:20;;;;;;;19.50;11.38;;;3.90;72.70;;;;;;5094084;28;20020;-70
2022/04/13 05:32:56;;;;;;;19.88;12.35;;;4.00;72.40;;;;;;5106166;28;20085;-70
2022/04/13 05:35:23;;;;;;;19.00;11.85;;;4.20;72.00;;;;;;5114142;28;20027;-73
2022/04/13 05:37:49;;;;;;;19.23;11.63;;;4.40;70.50;;;;;;5113526;28;20107;-70
2022/04/13 05:40:15;;;;;;;16.15;11.70;;;4.50;70.60;;;;;;5113079;28;20418;-73
2022/04/13 05:42:41;;;;;;;17.15;11.60;;;4.70;69.20;;;;;;5113710;27;20028;-70
2022/04/13 05:45:08;;;;;;;16.08;10.43;;;4.80;69.70;;;;;;5114074;28;20039;-70
2022/04/13 05:47:34;;;;;;;14.35;9.85;;;4.90;68.00;;;;;;5113317;27;20028;-73
2022/04/13 05:50:00;;;;;;;15.35;10.63;;;5.00;67.50;;;;;;5112798;28;20020;-70
2022/04/13 05:52:26;;;;;;;18.42;9.40;;;5.20;66.60;;;;;;5113414;28;20106;-73
2022/04/13 05:54:51;;;;;;;17.63;10.25;;;5.30;66.40;;;;;;5111153;28;20015;-73
2022/04/13 05:57:17;;;;;;;15.95;10.50;;;5.40;65.80;;;;;;5113443;28;20019;-73
2022/04/13 05:59:42;;;;;;;15.93;10.25;;;5.60;65.30;;;;;;5113775;28;20027;-73
2022/04/13 06:02:08;;;;;;;14.50;8.93;;;5.80;64.80;;;;;;5113794;28;20030;-73
2022/04/13 06:04:33;;;;;;;12.35;8.88;;;5.90;64.60;;;;;;5113369;28;20031;-73
2022/04/13 06:07:00;;;;;;;13.40;8.73;;;6.00;63.30;;;;;;5112569;28;20059;-70
2022/04/13 06:09:27;;;;;;;11.63;8.68;;;6.10;62.80;;;;;;5114461;28;20042;-71
2022/04/13 06:11:53;;;;;;;14.57;8.27;;;6.30;62.60;;;;;;5113102;28;20024;-70
2022/04/13 06:14:18;;;;;;;13.25;8.60;;;6.40;61.60;;;;;;5114268;28;20023;-74
2022/04/13 06:16:44;;;;;;;13.35;8.98;;;6.50;61.30;;;;;;5111931;28;20103;-70
2022/04/13 06:19:10;;;;;;;12.48;7.85;;;6.70;61.00;;;;;;5112256;28;20408;-72
2022/04/13 06:21:35;;;;;;;15.13;8.90;;;6.80;60.70;;;;;;5113159;28;20031;-73
2022/04/13 06:24:01;;;;;;;12.32;8.93;;;6.90;59.80;;;;;;5114263;28;20070;-73
2022/04/13 06:26:26;;;;;;;11.55;7.70;;;7.10;59.70;;;;;;5113377;28;20044;-73
2022/04/13 06:28:52;;;;;;;10.50;6.88;;;7.20;58.60;;;;;;5112168;28;20135;-73
2022/04/13 06:31:18;;;;;;;10.00;7.97;;;7.30;58.00;;;;;;5112855;28;20469;-70
2022/04/13 06:33:44;;;;;;;9.23;6.82;;;7.40;57.80;;;;;;5112815;28;20056;-70
2022/04/13 06:36:10;;;;;;;9.20;6.97;;;7.50;57.50;;;;;;5114086;28;20020;-71
2022/04/13 06:38:40;;;;;;;12.07;7.05;;;7.70;57.70;;;;;;5112670;28;20106;-74
2022/04/13 06:41:09;;;;;;;9.75;7.10;;;7.80;57.20;;;;;;5113961;28;20098;-71
2022/04/13 06:43:35;;;;;;;10.60;7.00;;;8.00;57.00;;;;;;5113953;28;20039;-73
2022/04/13 06:46:00;;;;;;;10.02;6.55;;;8.20;56.60;;;;;;5112803;28;20047;-73
2022/04/13 06:48:26;;;;;;;8.70;6.13;;;8.30;55.80;;;;;;5113160;28;20020;-73
2022/04/13 06:50:51;;;;;;;10.93;6.25;;;8.50;55.50;;;;;;5112274;28;20034;-73
2022/04/13 06:53:18;;;;;;;10.48;6.13;;;8.60;54.10;;;;;;5113622;28;20334;-71
2022/04/13 06:55:45;;;;;;;9.07;6.28;;;8.80;54.40;;;;;;5113329;28;20036;-73
2022/04/13 06:58:11;;;;;;;10.43;5.88;;;9.00;54.20;;;;;;5112909;28;20378;-73
2022/04/13 07:00:36;;;;;;;5.95;4.75;;;9.10;52.80;;;;;;5113393;28;20396;-73
2022/04/13 07:03:02;;;;;;;7.88;5.13;;;9.10;51.90;;;;;;5113565;28;20027;-73
2022/04/13 07:05:28;;;;;;;8.45;5.72;;;9.20;52.00;;;;;;5112395;28;20138;-72
2022/04/13 07:07:58;;;;;;;8.73;5.95;;;9.20;51.20;;;;;;5112492;28;20023;-72
2022/04/13 07:10:26;;;;;;;9.90;5.68;;;9.40;51.40;;;;;;5111123;28;20362;-74
2022/04/13 07:12:51;;;;;;;6.90;4.60;;;9.40;51.70;;;;;;5112344;28;20024;-73
2022/04/13 07:15:17;;;;;;;9.75;5.45;;;9.50;50.90;;;;;;5111752;28;20026;-74
2022/04/13 07:17:43;;;;;;;9.77;4.55;;;9.60;50.60;;;;;;5113181;28;20051;-71
2022/04/13 07:20:10;;;;;;;7.85;5.22;;;9.80;50.70;;;;;;5112262;28;20051;-74
2022/04/13 07:22:49;;;;;;;8.10;5.82;;;9.80;50.20;;;;;;5111681;28;20358;-74
2022/04/13 07:25:19;;;;;;;6.10;4.80;;;9.80;50.00;;;;;;5113577;28;20096;-71
2022/04/13 07:27:46;;;;;;;7.47;5.30;;;9.90;50.00;;;;;;5113031;28;20027;-73
2022/04/13 07:30:13;;;;;;;8.98;5.78;;;10.10;50.10;;;;;;5109369;28;20053;-71
2022/04/13 07:32:40;;;;;;;10.27;4.93;;;10.20;49.70;;;;;;5111433;28;20023;-71
2022/04/13 07:35:06;;;;;;;7.57;4.55;;;10.30;49.80;;;;;;5116899;28;20051;-74
2022/04/13 07:37:32;;;;;;;9.23;4.85;;;10.40;49.00;;;;;;5117594;28;20392;-74
2022/04/13 07:39:59;;;;;;;9.45;5.25;;;10.50;49.30;;;;;;5115316;28;20034;-73
2022/04/13 07:42:26;;;;;;;7.80;4.40;;;10.40;48.60;;;;;;5117243;28;20031;-74
2022/04/13 07:44:53;;;;;;;6.07;4.47;;;10.50;48.60;;;;;;5116608;28;20040;-74
2022/04/13 07:47:20;;;;;;;8.52;4.38;;;10.70;48.90;;;;;;5116940;28;20015;-73
2022/04/13 07:49:47;;;;;;;6.95;4.03;;;10.80;47.70;;;;;;5116458;28;20050;-74
2022/04/13 07:52:14;;;;;;;8.02;3.92;;;10.90;47.40;;;;;;5116602;28;20080;-72
2022/04/13 07:54:40;;;;;;;7.40;4.85;;;11.00;46.40;;;;;;5116774;28;20020;-72
2022/04/13 07:57:06;;;;;;;6.22;4.10;;;10.90;46.40;;;;;;5113875;28;20031;-72
2022/04/13 07:59:32;;;;;;;7.93;4.65;;;10.90;46.80;;;;;;5116683;28;20047;-72
2022/04/13 08:01:58;;;;;;;6.43;4.50;;;11.00;46.20;;;;;;5115031;28;20026;-71
2022/04/13 08:04:24;;;;;;;6.78;4.30;;;11.20;45.40;;;;;;5116279;28;20023;-73
2022/04/13 08:06:49;;;;;;;5.20;4.57;;;11.10;46.20;;;;;;5116669;28;20023;-74
2022/04/13 08:09:15;;;;;;;8.27;4.45;;;11.20;47.10;;;;;;5116113;28;20031;-71
2022/04/13 08:11:41;;;;;;;5.50;3.90;;;11.40;46.70;;;;;;5116872;28;20102;-74
2022/04/13 08:14:07;;;;;;;6.20;4.30;;;11.30;46.60;;;;;;5116772;28;20031;-72
2022/04/13 08:16:33;;;;;;;6.82;3.90;;;11.40;46.00;;;;;;5116665;28;20023;-72
2022/04/13 08:18:58;;;;;;;5.75;3.90;;;11.40;46.20;;;;;;5116218;28;20020;-71
2022/04/13 08:21:24;;;;;;;6.93;4.32;;;11.40;46.40;;;;;;5114925;28;20102;-72
2022/04/13 08:23:50;;;;;;;6.82;4.32;;;11.50;47.00;;;;;;5116345;28;20024;-71
2022/04/13 08:26:15;;;;;;;4.38;3.88;;;11.50;46.30;;;;;;5115948;28;20405;-72
2022/04/13 08:28:41;;;;;;;10.57;5.15;;;11.50;46.10;;;;;;5115901;28;20016;-73
2022/04/13 08:31:09;;;;;;;5.53;4.20;;;11.60;46.40;;;;;;5115999;28;20038;-74
2022/04/13 08:33:37;;;;;;;8.98;4.63;;;11.70;46.20;;;;;;5115815;27;20039;-74
2022/04/13 08:36:03;;;;;;;5.90;4.43;;;11.70;45.20;;;;;;5115551;28;20098;-73
2022/04/13 08:38:29;;;;;;;6.63;4.60;;;11.70;45.80;;;;;;5116066;28;20058;-71
2022/04/13 08:40:59;;;;;;;5.03;4.18;;;11.60;45.70;;;;;;5115923;28;20051;-74
2022/04/13 08:43:49;;;;;;;9.15;4.38;;;11.70;45.80;;;;;;5116255;28;20020;-74
2022/04/13 08:46:27;;;;;;;6.93;4.97;;;11.80;44.90;;;;;;5115493;28;20074;-71
2022/04/13 08:48:56;;;;;;;6.80;4.47;;;11.90;44.80;;;;;;5114820;28;20372;-72
2022/04/13 08:51:23;;;;;;;6.57;4.60;;;11.90;45.00;;;;;;5116139;28;20103;-72
2022/04/13 08:53:58;;;;;;;7.53;4.78;;;11.90;44.60;;;;;;5116075;28;20015;-72
2022/04/13 08:56:24;;;;;;;8.48;5.50;;;12.10;44.70;;;;;;5116049;28;20023;-72
2022/04/13 08:59:10;;;;;;;4.97;4.38;;;12.20;43.60;;;;;;5116029;28;20381;-72
2022/04/13 09:02:03;;;;;;;8.60;5.95;;;12.20;43.60;;;;;;5115827;28;20031;-72
2022/04/13 09:04:31;;;;;;;7.50;5.32;;;12.20;43.30;;;;;;5114545;28;20431;-74
2022/04/13 09:07:00;;;;;;;6.32;4.63;;;12.30;43.10;;;;;;5114582;28;20373;-71
2022/04/13 09:09:39;;;;;;;7.68;5.60;;;12.40;44.20;;;;;;5114318;28;20080;-72
2022/04/13 09:12:07;;;;;;;6.53;5.00;;;12.50;46.50;;;;;;5115868;28;20434;-74
2022/04/13 09:14:35;;;;;;;8.10;5.30;;;12.40;46.40;;;;;;5115615;28;20053;-72
2022/04/13 09:17:01;;;;;;;8.02;5.40;;;12.50;46.80;;;;;;5113344;28;20024;-73
2022/04/13 09:19:26;;;;;;;9.18;5.97;;;12.60;47.00;;;;;;5115283;28;20047;-73
2022/04/13 09:21:54;;;;;;;6.70;5.03;;;12.60;46.10;;;;;;5115236;28;20028;-74
2022/04/13 09:24:20;;;;;;;7.72;5.78;;;12.70;46.80;;;;;;5112897;28;20417;-71
2022/04/13 09:26:46;;;;;;;10.02;6.20;;;12.70;45.70;;;;;;5113727;28;20038;-72
2022/04/13 09:29:12;;;;;;;9.02;6.10;;;12.90;45.80;;;;;;5115188;28;20016;-72
2022/04/13 09:31:38;;;;;;;6.05;5.07;;;12.90;45.90;;;;;;5113179;27;20171;-70
2022/04/13 09:34:04;;;;;;;8.50;5.38;;;12.90;44.80;;;;;;5114857;28;20079;-75
2022/04/13 09:36:30;;;;;;;7.28;5.00;;;13.00;43.90;;;;;;5114958;27;20047;-72
2022/04/13 09:38:56;;;;;;;7.78;5.20;;;13.00;44.80;;;;;;5115119;28;20030;-72
2022/04/13 09:41:35;;;;;;;6.65;5.07;;;13.10;45.50;;;;;;5114731;28;20035;-75
2022/04/13 09:44:01;;;;;;;6.85;5.40;;;13.20;45.10;;;;;;5113628;28;20385;-72
2022/04/13 09:46:28;;;;;;;10.02;6.13;;;13.30;44.10;;;;;;5114809;28;20099;-75
2022/04/13 09:49:17;;;;;;;6.78;5.30;;;13.30;44.30;;;;;;5114835;28;20069;-75
2022/04/13 09:51:48;;;;;;;9.25;5.80;;;13.40;43.90;;;;;;5112891;28;20031;-73
2022/04/13 09:54:13;;;;;;;9.02;5.47;;;13.40;45.20;;;;;;5114807;28;20020;-75
2022/04/13 09:56:47;;;;;;;7.72;5.40;;;13.50;44.60;;;;;;5113571;28;20027;-75
2022/04/13 09:59:23;;;;;;;10.30;6.53;;;13.70;44.70;;;;;;5112558;28;20046;-75
2022/04/13 10:01:49;;;;;;;8.68;5.47;;;13.50;44.30;;;;;;5111891;28;20051;-74
2022/04/13 10:04:41;;;;;;;8.35;5.65;;;13.50;44.70;;;;;;5107987;28;20489;-72
2022/04/13 10:07:21;;;;;;;8.65;5.90;;;13.70;44.30;;;;;;5090822;28;20055;-72
2022/04/13 10:09:47;;;;;;;10.38;6.00;;;13.70;43.30;;;;;;5093238;28;20055;-72
2022/04/13 10:12:13;;;;;;;9.07;6.28;;;13.70;43.10;;;;;;5102758;28;20473;-73
2022/04/13 10:14:38;;;;;;;8.70;5.93;;;13.80;43.60;;;;;;5112308;28;20024;-73
2022/04/13 10:17:08;;;;;;;9.55;5.82;;;13.60;44.30;;;;;;5113672;28;20024;-74
2022/04/13 10:19:35;;;;;;;6.93;5.93;;;13.50;44.10;;;;;;5114264;28;20027;-72
2022/04/13 10:22:01;;;;;;;9.45;5.82;;;13.50;43.40;;;;;;5112987;28;20008;-75
2022/04/13 10:24:30;;;;;;;8.77;5.63;;;13.40;43.60;;;;;;5110907;28;20103;-72
2022/04/13 10:26:59;;;;;;;11.10;6.13;;;13.40;43.80;;;;;;5113683;28;20561;-75
2022/04/13 10:29:26;;;;;;;7.57;5.88;;;13.60;43.80;;;;;;5113825;28;20028;-75
2022/04/13 10:32:04;;;;;;;9.25;6.13;;;13.70;43.80;;;;;;5113930;28;20032;-75
2022/04/13 10:34:31;;;;;;;8.43;5.75;;;13.90;44.60;;;;;;5113564;28;20116;-72
2022/04/13 10:36:57;;;;;;;9.02;6.75;;;13.90;43.80;;;;;;5112056;28;20092;-75
2022/04/13 10:39:23;;;;;;;8.25;6.18;;;13.80;43.40;;;;;;5113467;28;20034;-72
2022/04/13 10:41:49;;;;;;;19.55;7.10;;;13.90;42.90;;;;;;5111816;28;20455;-75
2022/04/13 10:44:26;;;;;;;9.55;6.00;;;13.90;43.20;;;;;;5111761;28;20543;-74
2022/04/13 10:46:54;;;;;;;8.63;6.70;;;13.80;43.00;;;;;;5113533;28;20043;-75
2022/04/13 10:49:23;;;;;;;12.25;6.97;;;13.90;43.90;;;;;;5111577;28;20035;-74
2022/04/13 10:51:53;;;;;;;8.07;7.18;;;14.00;43.00;;;;;;5110635;28;20023;-75
2022/04/13 10:54:24;;;;;;;9.57;6.60;;;13.80;42.90;;;;;;5111162;28;20019;-72
2022/04/13 10:56:56;;;;;;;10.15;5.85;;;13.80;42.90;;;;;;5111206;28;20401;-74
2022/04/13 10:59:28;;;;;;;9.25;5.70;;;13.80;43.00;;;;;;5112149;27;20027;-74
2022/04/13 11:02:39;;;;;;;7.93;6.60;;;13.80;42.80;;;;;;5111861;28;20020;-72
2022/04/13 11:05:06;;;;;;;7.45;6.00;;;13.90;42.70;;;;;;5111633;28;20058;-75
2022/04/13 11:07:32;;;;;;;10.20;6.45;;;13.90;42.80;;;;;;5105527;28;20020;-72
2022/04/13 11:09:58;;;;;;;8.25;6.25;;;13.90;41.90;;;;;;5090356;28;20035;-72
2022/04/13 11:12:26;;;;;;;12.15;6.07;;;14.00;42.10;;;;;;5091182;28;20039;-72
2022/04/13 11:14:55;;;;;;;9.98;7.18;;;14.20;42.40;;;;;;5089969;28;20093;-74
2022/04/13 11:17:21;;;;;;;10.88;6.60;;;14.20;42.30;;;;;;5110555;28;20040;-71
2022/04/13 11:19:49;;;;;;;10.13;6.25;;;14.20;41.60;;;;;;5111830;28;20560;-71
2022/04/13 11:22:19;;;;;;;9.48;6.90;;;14.10;41.00;;;;;;5111669;27;20058;-72
2022/04/13 11:24:48;;;;;;;8.98;6.78;;;14.20;40.90;;;;;;5111617;28;20460;-72
2022/04/13 11:27:15;;;;;;;12.43;6.85;;;14.10;40.50;;;;;;5111912;27;20038;-72
2022/04/13 11:29:45;;;;;;;9.32;6.80;;;14.20;40.70;;;;;;5110039;28;20015;-72
2022/04/13 11:32:15;;;;;;;6.88;6.10;;;14.30;41.00;;;;;;5111479;27;20032;-73
2022/04/13 11:34:57;;;;;;;8.52;6.45;;;14.40;41.00;;;;;;5109714;28;20096;-73
2022/04/13 11:37:25;;;;;;;12.02;6.85;;;14.60;41.40;;;;;;5090916;28;20515;-73
2022/04/13 11:39:53;;;;;;;7.40;6.53;;;14.60;41.00;;;;;;5091983;28;20020;-73
2022/04/13 11:42:34;;;;;;;8.52;7.03;;;14.80;40.80;;;;;;5089818;28;20048;-73
2022/04/13 11:45:11;;;;;;;9.38;7.30;;;14.80;40.10;;;;;;5092165;28;20024;-73
2022/04/13 11:47:51;;;;;;;9.68;7.30;;;14.80;41.20;;;;;;5099419;28;20047;-73
2022/04/13 11:50:17;;;;;;;10.77;7.53;;;14.90;41.30;;;;;;5112241;28;20011;-73
2022/04/13 11:53:06;;;;;;;13.48;6.88;;;15.10;40.90;;;;;;5111682;27;20028;-73
2022/04/13 11:55:45;;;;;;;12.35;7.43;;;15.20;40.50;;;;;;5112367;28;20108;-72
2022/04/13 11:58:12;;;;;;;11.15;7.55;;;15.20;40.40;;;;;;5108893;28;20039;-73
2022/04/13 12:01:07;;;;;;;9.45;7.40;;;15.20;40.80;;;;;;5110685;28;20024;-73
2022/04/13 12:03:38;;;;;;;8.27;7.18;;;15.10;39.40;;;;;;5110411;28;20051;-76
2022/04/13 12:06:10;;;;;;;10.23;6.22;;;15.20;39.90;;;;;;5110718;28;20043;-76
2022/04/13 12:08:35;;;;;;;8.40;6.18;;;15.20;39.30;;;;;;5112157;27;20169;-76
2022/04/13 12:11:05;;;;;;;12.55;7.68;;;15.30;39.60;;;;;;5110977;28;20110;-76
2022/04/13 12:13:51;;;;;;;8.68;7.03;;;15.20;38.40;;;;;;5109948;28;20027;-76
2022/04/13 12:16:18;;;;;;;9.60;8.00;;;15.20;39.70;;;;;;5112090;28;20133;-76
2022/04/13 12:18:43;;;;;;;11.48;7.28;;;15.30;39.40;;;;;;5111576;27;20050;-76
2022/04/13 12:21:12;;;;;;;8.80;7.43;;;15.30;38.60;;;;;;5114273;28;20459;-77
2022/04/13 12:23:39;;;;;;;7.75;6.65;;;15.50;39.30;;;;;;5113882;28;20113;-77
2022/04/13 12:26:08;;;;;;;9.98;7.95;;;15.50;39.00;;;;;;5115757;28;20047;-76
2022/04/13 12:28:34;;;;;;;9.45;7.40;;;15.60;39.30;;;;;;5113684;28;20366;-76
2022/04/13 12:31:03;;;;;;;10.85;8.15;;;15.70;40.00;;;;;;5115358;28;20024;-76
2022/04/13 12:33:30;;;;;;;9.98;7.47;;;15.60;38.90;;;;;;5113616;27;20055;-76
2022/04/13 12:36:01;;;;;;;11.85;7.30;;;15.60;39.20;;;;;;5114139;28;20040;-77
2022/04/13 12:38:43;;;;;;;10.00;7.90;;;15.70;39.80;;;;;;5115240;27;20034;-76
2022/04/13 12:41:13;;;;;;;11.48;7.70;;;15.70;39.40;;;;;;5115514;28;20020;-76
2022/04/13 12:43:57;;;;;;;11.68;7.95;;;15.70;38.80;;;;;;5114228;27;20104;-76